sensor_id;sensor_type;location;lat;lon;timestamp;temperature;humidity
18823;DHT22;9540;51.550;7.980;2023-12-20T00:00:12;7.50;99.90
18823;DHT22;9540;51.550;7.980;2023-12-20T00:02:39;7.50;99.90
18823;DHT22;9540;51.550;7.980;2023-12-20T00:05:11;7.50;99.90
18823;DHT22;9540;51.550;7.980;2023-12-20T00:07:38;7.50;99.90
18823;DHT22;9540;51.550;7.980;2023-12-20T00:10:08;7.40;99.90
18823;DHT22;9540;51.550;7.980;2023-12-20T00:12:36;7.40;99.90
18823;DHT22;9540;51.550;7.980;2023-12-20T00:15:03;7.30;99.90
18823;DHT22;9540;51.550;7.980;2023-12-20T00:17:30;7.30;99.90
18823;DHT22;9540;51.550;7.980;2023-12-20T00:19:57;7.30;99.90
18823;DHT22;9540;51.550;7.980;2023-12-20T00:22:24;7.30;99.90
18823;DHT22;9540;51.550;7.980;2023-12-20T00:24:52;7.30;99.90
18823;DHT22;9540;51.550;7.980;2023-12-20T00:27:20;7.30;99.90
18823;DHT22;9540;51.550;7.980;2023-12-20T00:29:47;7.30;99.90
18823;DHT22;9540;51.550;7.980;2023-12-20T00:32:15;7.30;99.90
18823;DHT22;9540;51.550;7.980;2023-12-20T00:34:43;7.30;99.90
18823;DHT22;9540;51.550;7.980;2023-12-20T00:37:10;7.30;99.90
18823;DHT22;9540;51.550;7.980;2023-12-20T00:39:37;7.30;99.90
18823;DHT22;9540;51.550;7.980;2023-12-20T00:42:05;7.30;99.90
18823;DHT22;9540;51.550;7.980;2023-12-20T00:44:33;7.20;99.90
18823;DHT22;9540;51.550;7.980;2023-12-20T00:47:00;7.20;99.90
18823;DHT22;9540;51.550;7.980;2023-12-20T00:49:27;7.10;99.90
18823;DHT22;9540;51.550;7.980;2023-12-20T00:51:54;7.10;99.90
18823;DHT22;9540;51.550;7.980;2023-12-20T00:54:22;7.10;99.90
18823;DHT22;9540;51.550;7.980;2023-12-20T00:56:49;7.00;99.90
18823;DHT22;9540;51.550;7.980;2023-12-20T00:59:16;7.00;99.90
18823;DHT22;9540;51.550;7.980;2023-12-20T01:01:45;7.00;99.90
18823;DHT22;9540;51.550;7.980;2023-12-20T01:04:12;7.00;99.90
18823;DHT22;9540;51.550;7.980;2023-12-20T01:06:39;7.00;99.90
18823;DHT22;9540;51.550;7.980;2023-12-20T01:09:06;7.00;99.90
18823;DHT22;9540;51.550;7.980;2023-12-20T01:11:33;7.00;99.90
18823;DHT22;9540;51.550;7.980;2023-12-20T01:14:00;6.90;99.90
18823;DHT22;9540;51.550;7.980;2023-12-20T01:16:27;6.90;99.90
18823;DHT22;9540;51.550;7.980;2023-12-20T01:18:55;6.80;99.90
18823;DHT22;9540;51.550;7.980;2023-12-20T01:21:23;6.80;99.90
18823;DHT22;9540;51.550;7.980;2023-12-20T01:23:50;6.80;99.90
18823;DHT22;9540;51.550;7.980;2023-12-20T01:26:17;6.70;99.90
18823;DHT22;9540;51.550;7.980;2023-12-20T01:28:44;6.80;99.90
18823;DHT22;9540;51.550;7.980;2023-12-20T01:31:11;6.80;99.90
18823;DHT22;9540;51.550;7.980;2023-12-20T01:33:38;6.90;99.90
18823;DHT22;9540;51.550;7.980;2023-12-20T01:36:07;6.90;99.90
18823;DHT22;9540;51.550;7.980;2023-12-20T01:38:34;6.90;99.90
18823;DHT22;9540;51.550;7.980;2023-12-20T01:41:01;6.90;99.90
18823;DHT22;9540;51.550;7.980;2023-12-20T01:43:28;6.90;99.90
18823;DHT22;9540;51.550;7.980;2023-12-20T01:45:56;6.90;99.90
18823;DHT22;9540;51.550;7.980;2023-12-20T01:48:24;6.80;99.90
18823;DHT22;9540;51.550;7.980;2023-12-20T01:50:51;6.80;99.90
18823;DHT22;9540;51.550;7.980;2023-12-20T01:53:21;6.80;99.90
18823;DHT22;9540;51.550;7.980;2023-12-20T01:55:51;6.60;99.90
18823;DHT22;9540;51.550;7.980;2023-12-20T01:58:19;6.60;99.90
18823;DHT22;9540;51.550;7.980;2023-12-20T02:00:46;6.50;99.90
18823;DHT22;9540;51.550;7.980;2023-12-20T02:03:16;6.40;99.90
18823;DHT22;9540;51.550;7.980;2023-12-20T02:05:45;6.30;99.90
18823;DHT22;9540;51.550;7.980;2023-12-20T02:08:13;6.30;99.90
18823;DHT22;9540;51.550;7.980;2023-12-20T02:10:42;6.30;99.90
18823;DHT22;9540;51.550;7.980;2023-12-20T02:13:09;6.30;99.90
18823;DHT22;9540;51.550;7.980;2023-12-20T02:15:36;6.30;99.90
18823;DHT22;9540;51.550;7.980;2023-12-20T02:18:04;6.30;99.90
18823;DHT22;9540;51.550;7.980;2023-12-20T02:20:34;6.40;99.90
18823;DHT22;9540;51.550;7.980;2023-12-20T02:23:03;6.40;99.90
18823;DHT22;9540;51.550;7.980;2023-12-20T02:25:29;6.40;99.90
18823;DHT22;9540;51.550;7.980;2023-12-20T02:27:56;6.40;99.90
18823;DHT22;9540;51.550;7.980;2023-12-20T02:30:23;6.40;99.90
18823;DHT22;9540;51.550;7.980;2023-12-20T02:32:51;6.30;99.90
18823;DHT22;9540;51.550;7.980;2023-12-20T02:35:19;6.30;99.90
18823;DHT22;9540;51.550;7.980;2023-12-20T02:37:46;6.20;99.90
18823;DHT22;9540;51.550;7.980;2023-12-20T02:40:15;6.10;99.90
18823;DHT22;9540;51.550;7.980;2023-12-20T02:42:42;6.00;99.90
18823;DHT22;9540;51.550;7.980;2023-12-20T02:45:09;6.00;99.90
18823;DHT22;9540;51.550;7.980;2023-12-20T02:47:36;5.90;99.90
18823;DHT22;9540;51.550;7.980;2023-12-20T02:50:04;6.00;99.90
18823;DHT22;9540;51.550;7.980;2023-12-20T02:52:31;6.00;99.90
18823;DHT22;9540;51.550;7.980;2023-12-20T02:54:58;6.00;99.90
18823;DHT22;9540;51.550;7.980;2023-12-20T02:57:26;5.90;99.90
18823;DHT22;9540;51.550;7.980;2023-12-20T02:59:53;5.90;99.90
18823;DHT22;9540;51.550;7.980;2023-12-20T03:02:20;5.90;99.90
18823;DHT22;9540;51.550;7.980;2023-12-20T03:04:47;6.00;99.90
18823;DHT22;9540;51.550;7.980;2023-12-20T03:07:14;6.00;99.90
18823;DHT22;9540;51.550;7.980;2023-12-20T03:09:42;6.00;99.90
18823;DHT22;9540;51.550;7.980;2023-12-20T03:12:09;6.00;99.90
18823;DHT22;9540;51.550;7.980;2023-12-20T03:14:37;5.90;99.90
18823;DHT22;9540;51.550;7.980;2023-12-20T03:17:05;5.90;99.90
18823;DHT22;9540;51.550;7.980;2023-12-20T03:19:32;6.00;99.90
18823;DHT22;9540;51.550;7.980;2023-12-20T03:21:59;6.00;99.90
18823;DHT22;9540;51.550;7.980;2023-12-20T03:24:26;6.10;99.90
18823;DHT22;9540;51.550;7.980;2023-12-20T03:26:53;6.10;99.90
18823;DHT22;9540;51.550;7.980;2023-12-20T03:29:20;6.10;99.90
18823;DHT22;9540;51.550;7.980;2023-12-20T03:31:49;6.20;99.90
18823;DHT22;9540;51.550;7.980;2023-12-20T03:34:16;6.10;99.90
18823;DHT22;9540;51.550;7.980;2023-12-20T03:36:43;6.20;99.90
18823;DHT22;9540;51.550;7.980;2023-12-20T03:39:13;6.20;99.90
18823;DHT22;9540;51.550;7.980;2023-12-20T03:41:40;6.10;99.90
18823;DHT22;9540;51.550;7.980;2023-12-20T03:44:07;6.10;99.90
18823;DHT22;9540;51.550;7.980;2023-12-20T03:46:34;6.10;99.90
18823;DHT22;9540;51.550;7.980;2023-12-20T03:49:03;6.10;99.90
18823;DHT22;9540;51.550;7.980;2023-12-20T03:51:30;6.10;99.90
18823;DHT22;9540;51.550;7.980;2023-12-20T03:53:57;6.10;99.90
18823;DHT22;9540;51.550;7.980;2023-12-20T03:56:24;6.10;99.90
18823;DHT22;9540;51.550;7.980;2023-12-20T03:58:51;6.10;99.90
18823;DHT22;9540;51.550;7.980;2023-12-20T04:01:18;6.10;99.90
18823;DHT22;9540;51.550;7.980;2023-12-20T04:03:45;6.10;99.90
18823;DHT22;9540;51.550;7.980;2023-12-20T04:06:17;6.10;99.90
18823;DHT22;9540;51.550;7.980;2023-12-20T04:08:44;6.10;99.90
18823;DHT22;9540;51.550;7.980;2023-12-20T04:11:12;6.00;99.90
18823;DHT22;9540;51.550;7.980;2023-12-20T04:13:39;6.00;99.90
18823;DHT22;9540;51.550;7.980;2023-12-20T04:16:06;6.00;99.90
18823;DHT22;9540;51.550;7.980;2023-12-20T04:18:33;6.00;99.90
18823;DHT22;9540;51.550;7.980;2023-12-20T04:21:00;6.00;99.90
18823;DHT22;9540;51.550;7.980;2023-12-20T04:23:28;6.00;99.90
18823;DHT22;9540;51.550;7.980;2023-12-20T04:25:55;6.00;99.90
18823;DHT22;9540;51.550;7.980;2023-12-20T04:28:22;6.00;99.90
18823;DHT22;9540;51.550;7.980;2023-12-20T04:30:49;6.00;99.90
18823;DHT22;9540;51.550;7.980;2023-12-20T04:33:17;5.90;99.90
18823;DHT22;9540;51.550;7.980;2023-12-20T04:35:44;5.90;99.90
18823;DHT22;9540;51.550;7.980;2023-12-20T04:38:14;5.90;99.90
18823;DHT22;9540;51.550;7.980;2023-12-20T04:40:43;5.90;99.90
18823;DHT22;9540;51.550;7.980;2023-12-20T04:43:10;5.80;99.90
18823;DHT22;9540;51.550;7.980;2023-12-20T04:45:37;5.80;99.90
18823;DHT22;9540;51.550;7.980;2023-12-20T04:48:05;5.70;99.90
18823;DHT22;9540;51.550;7.980;2023-12-20T04:50:32;5.60;99.90
18823;DHT22;9540;51.550;7.980;2023-12-20T04:52:59;5.70;99.90
18823;DHT22;9540;51.550;7.980;2023-12-20T04:55:26;5.70;99.90
18823;DHT22;9540;51.550;7.980;2023-12-20T04:57:54;5.70;99.90
18823;DHT22;9540;51.550;7.980;2023-12-20T05:00:22;5.80;99.90
18823;DHT22;9540;51.550;7.980;2023-12-20T05:02:49;5.90;99.90
18823;DHT22;9540;51.550;7.980;2023-12-20T05:05:16;6.00;99.90
18823;DHT22;9540;51.550;7.980;2023-12-20T05:07:43;6.00;99.90
18823;DHT22;9540;51.550;7.980;2023-12-20T05:10:10;6.10;99.90
18823;DHT22;9540;51.550;7.980;2023-12-20T05:12:37;6.10;99.90
18823;DHT22;9540;51.550;7.980;2023-12-20T05:15:07;6.00;99.90
18823;DHT22;9540;51.550;7.980;2023-12-20T05:17:35;6.00;99.90
18823;DHT22;9540;51.550;7.980;2023-12-20T05:20:03;6.00;99.90
18823;DHT22;9540;51.550;7.980;2023-12-20T05:22:30;6.10;99.90
18823;DHT22;9540;51.550;7.980;2023-12-20T05:24:57;6.10;99.90
18823;DHT22;9540;51.550;7.980;2023-12-20T05:27:24;6.20;99.90
18823;DHT22;9540;51.550;7.980;2023-12-20T05:29:51;6.20;99.90
18823;DHT22;9540;51.550;7.980;2023-12-20T05:32:20;6.20;99.90
18823;DHT22;9540;51.550;7.980;2023-12-20T05:34:47;6.20;99.90
18823;DHT22;9540;51.550;7.980;2023-12-20T05:37:17;6.20;99.90
18823;DHT22;9540;51.550;7.980;2023-12-20T05:39:44;6.20;99.90
18823;DHT22;9540;51.550;7.980;2023-12-20T05:42:11;6.20;99.90
18823;DHT22;9540;51.550;7.980;2023-12-20T05:44:38;6.30;99.90
18823;DHT22;9540;51.550;7.980;2023-12-20T05:47:05;6.20;99.90
18823;DHT22;9540;51.550;7.980;2023-12-20T05:49:34;6.20;99.90
18823;DHT22;9540;51.550;7.980;2023-12-20T05:52:01;6.20;99.90
18823;DHT22;9540;51.550;7.980;2023-12-20T05:54:28;6.20;99.90
18823;DHT22;9540;51.550;7.980;2023-12-20T05:56:55;6.20;99.90
18823;DHT22;9540;51.550;7.980;2023-12-20T05:59:22;6.20;99.90
18823;DHT22;9540;51.550;7.980;2023-12-20T06:01:49;6.10;99.90
18823;DHT22;9540;51.550;7.980;2023-12-20T06:04:16;6.10;99.90
18823;DHT22;9540;51.550;7.980;2023-12-20T06:06:45;6.00;99.90
18823;DHT22;9540;51.550;7.980;2023-12-20T06:09:12;6.00;99.90
18823;DHT22;9540;51.550;7.980;2023-12-20T06:11:39;6.10;99.90
18823;DHT22;9540;51.550;7.980;2023-12-20T06:14:06;6.10;99.90
18823;DHT22;9540;51.550;7.980;2023-12-20T06:16:33;6.00;99.90
18823;DHT22;9540;51.550;7.980;2023-12-20T06:19:00;6.10;99.90
18823;DHT22;9540;51.550;7.980;2023-12-20T06:21:28;6.10;99.90
18823;DHT22;9540;51.550;7.980;2023-12-20T06:23:56;6.10;99.90
18823;DHT22;9540;51.550;7.980;2023-12-20T06:26:23;6.10;99.90
18823;DHT22;9540;51.550;7.980;2023-12-20T06:28:50;6.20;99.90
18823;DHT22;9540;51.550;7.980;2023-12-20T06:31:17;6.30;99.90
18823;DHT22;9540;51.550;7.980;2023-12-20T06:33:44;6.20;99.90
18823;DHT22;9540;51.550;7.980;2023-12-20T06:36:12;6.30;99.90
18823;DHT22;9540;51.550;7.980;2023-12-20T06:38:39;6.30;99.90
18823;DHT22;9540;51.550;7.980;2023-12-20T06:41:12;6.30;99.90
18823;DHT22;9540;51.550;7.980;2023-12-20T06:43:39;6.20;99.90
18823;DHT22;9540;51.550;7.980;2023-12-20T06:46:07;6.20;99.90
18823;DHT22;9540;51.550;7.980;2023-12-20T06:48:34;6.30;99.90
18823;DHT22;9540;51.550;7.980;2023-12-20T06:51:02;6.40;99.90
18823;DHT22;9540;51.550;7.980;2023-12-20T06:53:29;6.40;99.90
18823;DHT22;9540;51.550;7.980;2023-12-20T06:55:56;6.30;99.90
18823;DHT22;9540;51.550;7.980;2023-12-20T06:58:24;6.30;99.90
18823;DHT22;9540;51.550;7.980;2023-12-20T07:00:51;6.30;99.90
18823;DHT22;9540;51.550;7.980;2023-12-20T07:03:18;6.30;99.90
18823;DHT22;9540;51.550;7.980;2023-12-20T07:05:45;6.40;99.90
18823;DHT22;9540;51.550;7.980;2023-12-20T07:08:12;6.40;99.90
18823;DHT22;9540;51.550;7.980;2023-12-20T07:10:41;6.40;99.90
18823;DHT22;9540;51.550;7.980;2023-12-20T07:13:08;6.40;99.90
18823;DHT22;9540;51.550;7.980;2023-12-20T07:15:36;6.40;99.90
18823;DHT22;9540;51.550;7.980;2023-12-20T07:18:04;6.40;99.90
18823;DHT22;9540;51.550;7.980;2023-12-20T07:20:32;6.50;99.90
18823;DHT22;9540;51.550;7.980;2023-12-20T07:23:00;6.50;99.90
18823;DHT22;9540;51.550;7.980;2023-12-20T07:25:27;6.50;99.90
18823;DHT22;9540;51.550;7.980;2023-12-20T07:27:54;6.50;99.90
18823;DHT22;9540;51.550;7.980;2023-12-20T07:30:21;6.50;99.90
18823;DHT22;9540;51.550;7.980;2023-12-20T07:32:50;6.50;99.90
18823;DHT22;9540;51.550;7.980;2023-12-20T07:35:18;6.50;99.90
18823;DHT22;9540;51.550;7.980;2023-12-20T07:37:45;6.50;99.90
18823;DHT22;9540;51.550;7.980;2023-12-20T07:40:12;6.50;99.90
18823;DHT22;9540;51.550;7.980;2023-12-20T07:42:40;6.50;99.90
18823;DHT22;9540;51.550;7.980;2023-12-20T07:45:07;6.50;99.90
18823;DHT22;9540;51.550;7.980;2023-12-20T07:47:34;6.50;99.90
18823;DHT22;9540;51.550;7.980;2023-12-20T07:50:04;6.60;99.90
18823;DHT22;9540;51.550;7.980;2023-12-20T07:52:31;6.60;99.90
18823;DHT22;9540;51.550;7.980;2023-12-20T07:54:58;6.50;99.90
18823;DHT22;9540;51.550;7.980;2023-12-20T07:57:28;6.50;99.90
18823;DHT22;9540;51.550;7.980;2023-12-20T07:59:55;6.50;99.90
18823;DHT22;9540;51.550;7.980;2023-12-20T08:02:22;6.50;99.90
18823;DHT22;9540;51.550;7.980;2023-12-20T08:04:49;6.60;99.90
18823;DHT22;9540;51.550;7.980;2023-12-20T08:07:17;6.60;99.90
18823;DHT22;9540;51.550;7.980;2023-12-20T08:09:44;6.50;99.90
18823;DHT22;9540;51.550;7.980;2023-12-20T08:12:12;6.50;99.90
18823;DHT22;9540;51.550;7.980;2023-12-20T08:14:42;6.50;99.90
18823;DHT22;9540;51.550;7.980;2023-12-20T08:17:09;6.50;99.90
18823;DHT22;9540;51.550;7.980;2023-12-20T08:19:36;6.50;99.90
18823;DHT22;9540;51.550;7.980;2023-12-20T08:22:03;6.50;99.90
18823;DHT22;9540;51.550;7.980;2023-12-20T08:24:31;6.50;99.90
18823;DHT22;9540;51.550;7.980;2023-12-20T08:26:58;6.50;99.90
18823;DHT22;9540;51.550;7.980;2023-12-20T08:29:25;6.50;99.90
18823;DHT22;9540;51.550;7.980;2023-12-20T08:31:53;6.50;99.90
18823;DHT22;9540;51.550;7.980;2023-12-20T08:34:20;6.50;99.90
18823;DHT22;9540;51.550;7.980;2023-12-20T08:36:47;6.60;99.90
18823;DHT22;9540;51.550;7.980;2023-12-20T08:39:14;6.60;99.90
18823;DHT22;9540;51.550;7.980;2023-12-20T08:41:43;6.60;99.90
18823;DHT22;9540;51.550;7.980;2023-12-20T08:44:10;6.70;99.90
18823;DHT22;9540;51.550;7.980;2023-12-20T08:46:37;6.70;99.90
18823;DHT22;9540;51.550;7.980;2023-12-20T08:49:04;6.70;99.90
18823;DHT22;9540;51.550;7.980;2023-12-20T08:51:32;6.70;99.90
18823;DHT22;9540;51.550;7.980;2023-12-20T08:53:59;6.70;99.90
18823;DHT22;9540;51.550;7.980;2023-12-20T08:56:26;6.80;99.90
18823;DHT22;9540;51.550;7.980;2023-12-20T08:58:55;6.80;99.90
18823;DHT22;9540;51.550;7.980;2023-12-20T09:01:22;6.80;99.90
18823;DHT22;9540;51.550;7.980;2023-12-20T09:03:49;6.80;99.90
18823;DHT22;9540;51.550;7.980;2023-12-20T09:06:16;6.80;99.90
18823;DHT22;9540;51.550;7.980;2023-12-20T09:08:43;6.80;99.90
18823;DHT22;9540;51.550;7.980;2023-12-20T09:11:10;6.90;99.90
18823;DHT22;9540;51.550;7.980;2023-12-20T09:13:37;6.80;99.90
18823;DHT22;9540;51.550;7.980;2023-12-20T09:16:06;6.90;99.90
18823;DHT22;9540;51.550;7.980;2023-12-20T09:18:33;6.90;99.90
18823;DHT22;9540;51.550;7.980;2023-12-20T09:21:00;6.90;99.90
18823;DHT22;9540;51.550;7.980;2023-12-20T09:23:27;6.90;99.90
18823;DHT22;9540;51.550;7.980;2023-12-20T09:25:54;6.90;99.90
18823;DHT22;9540;51.550;7.980;2023-12-20T09:28:22;6.90;99.90
18823;DHT22;9540;51.550;7.980;2023-12-20T09:30:49;6.90;99.90
18823;DHT22;9540;51.550;7.980;2023-12-20T09:33:17;7.00;99.90
18823;DHT22;9540;51.550;7.980;2023-12-20T09:35:44;7.00;99.90
18823;DHT22;9540;51.550;7.980;2023-12-20T09:38:11;7.00;99.90
18823;DHT22;9540;51.550;7.980;2023-12-20T09:40:41;7.00;99.90
18823;DHT22;9540;51.550;7.980;2023-12-20T09:43:11;7.00;99.90
18823;DHT22;9540;51.550;7.980;2023-12-20T09:45:40;7.00;99.90
18823;DHT22;9540;51.550;7.980;2023-12-20T09:48:09;7.10;99.90
18823;DHT22;9540;51.550;7.980;2023-12-20T09:50:38;7.10;99.90
18823;DHT22;9540;51.550;7.980;2023-12-20T09:53:08;7.10;99.90
18823;DHT22;9540;51.550;7.980;2023-12-20T09:55:37;7.10;99.90
18823;DHT22;9540;51.550;7.980;2023-12-20T09:58:05;7.10;99.90
18823;DHT22;9540;51.550;7.980;2023-12-20T10:00:34;7.10;99.90
18823;DHT22;9540;51.550;7.980;2023-12-20T10:03:01;7.10;99.90
18823;DHT22;9540;51.550;7.980;2023-12-20T10:05:29;7.20;99.90
18823;DHT22;9540;51.550;7.980;2023-12-20T10:07:59;7.20;99.90
18823;DHT22;9540;51.550;7.980;2023-12-20T10:10:26;7.20;99.90
18823;DHT22;9540;51.550;7.980;2023-12-20T10:13:05;7.30;99.90
18823;DHT22;9540;51.550;7.980;2023-12-20T10:15:33;7.40;99.90
18823;DHT22;9540;51.550;7.980;2023-12-20T10:18:00;7.50;99.90
18823;DHT22;9540;51.550;7.980;2023-12-20T10:20:27;7.50;99.90
18823;DHT22;9540;51.550;7.980;2023-12-20T10:22:55;7.50;99.90
18823;DHT22;9540;51.550;7.980;2023-12-20T10:25:24;7.50;99.90
18823;DHT22;9540;51.550;7.980;2023-12-20T10:28:08;7.60;99.90
18823;DHT22;9540;51.550;7.980;2023-12-20T10:30:35;7.90;99.90
18823;DHT22;9540;51.550;7.980;2023-12-20T10:33:03;8.00;99.90
18823;DHT22;9540;51.550;7.980;2023-12-20T10:35:32;8.00;99.90
18823;DHT22;9540;51.550;7.980;2023-12-20T10:38:03;7.80;99.90
18823;DHT22;9540;51.550;7.980;2023-12-20T10:40:34;7.70;99.90
18823;DHT22;9540;51.550;7.980;2023-12-20T10:43:03;7.60;99.90
18823;DHT22;9540;51.550;7.980;2023-12-20T10:45:30;7.60;99.90
18823;DHT22;9540;51.550;7.980;2023-12-20T10:47:58;7.50;99.90
18823;DHT22;9540;51.550;7.980;2023-12-20T10:50:27;7.50;99.90
18823;DHT22;9540;51.550;7.980;2023-12-20T10:52:54;7.50;99.90
18823;DHT22;9540;51.550;7.980;2023-12-20T10:55:22;7.40;99.90
18823;DHT22;9540;51.550;7.980;2023-12-20T10:57:51;7.40;99.90
18823;DHT22;9540;51.550;7.980;2023-12-20T11:00:19;7.40;99.90
18823;DHT22;9540;51.550;7.980;2023-12-20T11:02:49;7.30;99.90
18823;DHT22;9540;51.550;7.980;2023-12-20T11:05:25;7.30;99.90
18823;DHT22;9540;51.550;7.980;2023-12-20T11:08:00;7.30;99.90
18823;DHT22;9540;51.550;7.980;2023-12-20T11:10:31;7.30;99.90
18823;DHT22;9540;51.550;7.980;2023-12-20T11:13:08;7.30;99.90
18823;DHT22;9540;51.550;7.980;2023-12-20T11:15:37;7.30;99.90
18823;DHT22;9540;51.550;7.980;2023-12-20T11:18:05;7.40;99.90
18823;DHT22;9540;51.550;7.980;2023-12-20T11:20:37;7.40;99.90
18823;DHT22;9540;51.550;7.980;2023-12-20T11:23:04;7.40;99.90
18823;DHT22;9540;51.550;7.980;2023-12-20T11:25:46;7.40;99.90
18823;DHT22;9540;51.550;7.980;2023-12-20T11:28:15;7.40;99.90
18823;DHT22;9540;51.550;7.980;2023-12-20T11:30:47;7.30;99.90
18823;DHT22;9540;51.550;7.980;2023-12-20T11:33:15;7.30;99.90
18823;DHT22;9540;51.550;7.980;2023-12-20T11:35:42;7.30;99.90
18823;DHT22;9540;51.550;7.980;2023-12-20T11:38:13;7.30;99.90
18823;DHT22;9540;51.550;7.980;2023-12-20T11:40:41;7.30;99.90
18823;DHT22;9540;51.550;7.980;2023-12-20T11:43:09;7.30;99.90
18823;DHT22;9540;51.550;7.980;2023-12-20T11:45:37;7.30;99.90
18823;DHT22;9540;51.550;7.980;2023-12-20T11:48:05;7.30;99.90
18823;DHT22;9540;51.550;7.980;2023-12-20T11:50:33;7.30;99.90
18823;DHT22;9540;51.550;7.980;2023-12-20T11:53:00;7.30;99.90
18823;DHT22;9540;51.550;7.980;2023-12-20T11:55:27;7.30;99.90
18823;DHT22;9540;51.550;7.980;2023-12-20T11:57:54;7.40;99.90
18823;DHT22;9540;51.550;7.980;2023-12-20T12:00:21;7.40;99.90
18823;DHT22;9540;51.550;7.980;2023-12-20T12:02:59;7.40;99.90
18823;DHT22;9540;51.550;7.980;2023-12-20T12:05:30;7.40;99.90
18823;DHT22;9540;51.550;7.980;2023-12-20T12:07:58;7.50;99.90
18823;DHT22;9540;51.550;7.980;2023-12-20T12:10:25;7.50;99.90
18823;DHT22;9540;51.550;7.980;2023-12-20T12:12:53;7.40;99.90
18823;DHT22;9540;51.550;7.980;2023-12-20T12:15:20;7.50;99.90
18823;DHT22;9540;51.550;7.980;2023-12-20T12:17:53;7.50;99.90
18823;DHT22;9540;51.550;7.980;2023-12-20T12:20:22;7.50;99.90
18823;DHT22;9540;51.550;7.980;2023-12-20T12:22:58;7.50;99.90
18823;DHT22;9540;51.550;7.980;2023-12-20T12:25:25;7.40;99.90
18823;DHT22;9540;51.550;7.980;2023-12-20T12:27:53;7.40;99.90
18823;DHT22;9540;51.550;7.980;2023-12-20T12:30:20;7.40;99.90
18823;DHT22;9540;51.550;7.980;2023-12-20T12:32:48;7.40;99.90
18823;DHT22;9540;51.550;7.980;2023-12-20T12:35:15;7.30;99.90
18823;DHT22;9540;51.550;7.980;2023-12-20T12:37:43;7.20;99.90
18823;DHT22;9540;51.550;7.980;2023-12-20T12:40:12;7.20;99.90
18823;DHT22;9540;51.550;7.980;2023-12-20T12:42:40;7.10;99.90
18823;DHT22;9540;51.550;7.980;2023-12-20T12:45:08;7.10;99.90
18823;DHT22;9540;51.550;7.980;2023-12-20T12:47:35;7.20;99.90
18823;DHT22;9540;51.550;7.980;2023-12-20T12:50:06;7.20;99.90
18823;DHT22;9540;51.550;7.980;2023-12-20T12:52:33;7.30;99.90
18823;DHT22;9540;51.550;7.980;2023-12-20T12:55:02;7.30;99.90
18823;DHT22;9540;51.550;7.980;2023-12-20T12:57:30;7.40;99.90
18823;DHT22;9540;51.550;7.980;2023-12-20T12:59:57;7.40;99.90
18823;DHT22;9540;51.550;7.980;2023-12-20T13:02:24;7.50;99.90
18823;DHT22;9540;51.550;7.980;2023-12-20T13:04:51;7.50;99.90
18823;DHT22;9540;51.550;7.980;2023-12-20T13:07:18;7.50;99.90
18823;DHT22;9540;51.550;7.980;2023-12-20T13:09:45;7.50;99.90
18823;DHT22;9540;51.550;7.980;2023-12-20T13:12:14;7.50;99.90
18823;DHT22;9540;51.550;7.980;2023-12-20T13:14:41;7.40;99.90
18823;DHT22;9540;51.550;7.980;2023-12-20T13:17:08;7.40;99.90
18823;DHT22;9540;51.550;7.980;2023-12-20T13:19:36;7.60;99.90
18823;DHT22;9540;51.550;7.980;2023-12-20T13:22:03;7.60;99.90
18823;DHT22;9540;51.550;7.980;2023-12-20T13:24:30;7.60;99.90
18823;DHT22;9540;51.550;7.980;2023-12-20T13:26:58;7.60;99.90
18823;DHT22;9540;51.550;7.980;2023-12-20T13:29:26;7.50;99.90
18823;DHT22;9540;51.550;7.980;2023-12-20T13:31:53;7.50;99.90
18823;DHT22;9540;51.550;7.980;2023-12-20T13:34:20;7.50;99.90
18823;DHT22;9540;51.550;7.980;2023-12-20T13:36:47;7.50;99.90
18823;DHT22;9540;51.550;7.980;2023-12-20T13:39:16;7.50;99.90
18823;DHT22;9540;51.550;7.980;2023-12-20T13:41:43;7.50;99.90
18823;DHT22;9540;51.550;7.980;2023-12-20T13:44:10;7.50;99.90
18823;DHT22;9540;51.550;7.980;2023-12-20T13:46:40;7.60;99.90
18823;DHT22;9540;51.550;7.980;2023-12-20T13:49:07;7.60;99.90
18823;DHT22;9540;51.550;7.980;2023-12-20T13:51:35;7.60;99.90
18823;DHT22;9540;51.550;7.980;2023-12-20T13:54:02;7.70;99.90
18823;DHT22;9540;51.550;7.980;2023-12-20T13:56:29;7.70;99.90
18823;DHT22;9540;51.550;7.980;2023-12-20T13:58:56;7.60;99.90
18823;DHT22;9540;51.550;7.980;2023-12-20T14:01:24;7.60;99.90
18823;DHT22;9540;51.550;7.980;2023-12-20T14:03:53;7.60;99.90
18823;DHT22;9540;51.550;7.980;2023-12-20T14:06:20;7.60;99.90
18823;DHT22;9540;51.550;7.980;2023-12-20T14:08:47;7.60;99.90
18823;DHT22;9540;51.550;7.980;2023-12-20T14:11:15;7.60;99.90
18823;DHT22;9540;51.550;7.980;2023-12-20T14:13:42;7.50;99.90
18823;DHT22;9540;51.550;7.980;2023-12-20T14:16:09;7.50;99.90
18823;DHT22;9540;51.550;7.980;2023-12-20T14:18:36;7.50;99.90
18823;DHT22;9540;51.550;7.980;2023-12-20T14:21:05;7.50;99.90
18823;DHT22;9540;51.550;7.980;2023-12-20T14:23:32;7.40;99.90
18823;DHT22;9540;51.550;7.980;2023-12-20T14:26:00;7.40;99.90
18823;DHT22;9540;51.550;7.980;2023-12-20T14:28:28;7.30;99.90
18823;DHT22;9540;51.550;7.980;2023-12-20T14:30:55;7.30;99.90
18823;DHT22;9540;51.550;7.980;2023-12-20T14:33:22;7.30;99.90
18823;DHT22;9540;51.550;7.980;2023-12-20T14:35:50;7.30;99.90
18823;DHT22;9540;51.550;7.980;2023-12-20T14:38:19;7.40;99.90
18823;DHT22;9540;51.550;7.980;2023-12-20T14:40:46;7.40;99.90
18823;DHT22;9540;51.550;7.980;2023-12-20T14:43:13;7.40;99.90
18823;DHT22;9540;51.550;7.980;2023-12-20T14:45:41;7.40;99.90
18823;DHT22;9540;51.550;7.980;2023-12-20T14:48:09;7.40;99.90
18823;DHT22;9540;51.550;7.980;2023-12-20T14:50:35;7.40;99.90
18823;DHT22;9540;51.550;7.980;2023-12-20T14:53:02;7.50;99.90
18823;DHT22;9540;51.550;7.980;2023-12-20T14:55:31;7.40;99.90
18823;DHT22;9540;51.550;7.980;2023-12-20T14:57:59;7.40;99.90
18823;DHT22;9540;51.550;7.980;2023-12-20T15:00:27;7.40;99.90
18823;DHT22;9540;51.550;7.980;2023-12-20T15:02:55;7.40;99.90
18823;DHT22;9540;51.550;7.980;2023-12-20T15:05:22;7.40;99.90
18823;DHT22;9540;51.550;7.980;2023-12-20T15:07:49;7.30;99.90
18823;DHT22;9540;51.550;7.980;2023-12-20T15:10:16;7.30;99.90
18823;DHT22;9540;51.550;7.980;2023-12-20T15:12:45;7.30;99.90
18823;DHT22;9540;51.550;7.980;2023-12-20T15:15:12;7.30;99.90
18823;DHT22;9540;51.550;7.980;2023-12-20T15:17:40;7.20;99.90
18823;DHT22;9540;51.550;7.980;2023-12-20T15:20:08;7.20;99.90
18823;DHT22;9540;51.550;7.980;2023-12-20T15:22:36;7.20;99.90
18823;DHT22;9540;51.550;7.980;2023-12-20T15:25:04;7.20;99.90
18823;DHT22;9540;51.550;7.980;2023-12-20T15:27:32;7.30;99.90
18823;DHT22;9540;51.550;7.980;2023-12-20T15:30:03;7.20;99.90
18823;DHT22;9540;51.550;7.980;2023-12-20T15:32:30;7.30;99.90
18823;DHT22;9540;51.550;7.980;2023-12-20T15:34:58;7.30;99.90
18823;DHT22;9540;51.550;7.980;2023-12-20T15:37:25;7.30;99.90
18823;DHT22;9540;51.550;7.980;2023-12-20T15:39:53;7.30;99.90
18823;DHT22;9540;51.550;7.980;2023-12-20T15:42:20;7.30;99.90
18823;DHT22;9540;51.550;7.980;2023-12-20T15:44:47;7.30;99.90
18823;DHT22;9540;51.550;7.980;2023-12-20T15:47:15;7.30;99.90
18823;DHT22;9540;51.550;7.980;2023-12-20T15:49:42;7.30;99.90
18823;DHT22;9540;51.550;7.980;2023-12-20T15:52:11;7.20;99.90
18823;DHT22;9540;51.550;7.980;2023-12-20T15:54:38;7.30;99.90
18823;DHT22;9540;51.550;7.980;2023-12-20T15:57:07;7.30;99.90
18823;DHT22;9540;51.550;7.980;2023-12-20T15:59:35;7.40;99.90
18823;DHT22;9540;51.550;7.980;2023-12-20T16:02:03;7.40;99.90
18823;DHT22;9540;51.550;7.980;2023-12-20T16:04:31;7.40;99.90